sensor_id;sensor_type;location;lat;lon;timestamp;temperature;humidity
39099;DHT22;24844;52.380;7.018;2023-07-13T00:00:29;17.10;99.90
39099;DHT22;24844;52.380;7.018;2023-07-13T00:02:55;17.00;99.90
39099;DHT22;24844;52.380;7.018;2023-07-13T00:05:22;17.10;99.90
39099;DHT22;24844;52.380;7.018;2023-07-13T00:07:50;17.00;99.90
39099;DHT22;24844;52.380;7.018;2023-07-13T00:10:17;16.90;99.90
39099;DHT22;24844;52.380;7.018;2023-07-13T00:12:43;16.90;99.90
39099;DHT22;24844;52.380;7.018;2023-07-13T00:15:15;16.90;99.90
39099;DHT22;24844;52.380;7.018;2023-07-13T00:17:42;16.80;99.90
39099;DHT22;24844;52.380;7.018;2023-07-13T00:20:10;16.80;99.90
39099;DHT22;24844;52.380;7.018;2023-07-13T00:22:36;16.90;99.90
39099;DHT22;24844;52.380;7.018;2023-07-13T00:25:02;16.80;99.90
39099;DHT22;24844;52.380;7.018;2023-07-13T00:27:28;16.90;99.90
39099;DHT22;24844;52.380;7.018;2023-07-13T00:29:57;16.80;99.90
39099;DHT22;24844;52.380;7.018;2023-07-13T00:32:23;17.00;99.90
39099;DHT22;24844;52.380;7.018;2023-07-13T00:34:51;16.90;99.90
39099;DHT22;24844;52.380;7.018;2023-07-13T00:37:17;17.10;99.90
39099;DHT22;24844;52.380;7.018;2023-07-13T00:39:42;16.90;99.90
39099;DHT22;24844;52.380;7.018;2023-07-13T00:42:08;16.90;99.90
39099;DHT22;24844;52.380;7.018;2023-07-13T00:44:34;17.00;99.90
39099;DHT22;24844;52.380;7.018;2023-07-13T00:46:59;16.90;99.90
39099;DHT22;24844;52.380;7.018;2023-07-13T00:49:28;16.80;99.90
39099;DHT22;24844;52.380;7.018;2023-07-13T00:51:56;16.70;99.90
39099;DHT22;24844;52.380;7.018;2023-07-13T00:54:40;16.70;99.90
39099;DHT22;24844;52.380;7.018;2023-07-13T00:57:10;16.70;99.90
39099;DHT22;24844;52.380;7.018;2023-07-13T00:59:40;16.70;99.90
39099;DHT22;24844;52.380;7.018;2023-07-13T01:02:07;16.70;99.90
39099;DHT22;24844;52.380;7.018;2023-07-13T01:04:33;16.60;99.90
39099;DHT22;24844;52.380;7.018;2023-07-13T01:06:59;16.50;99.90
39099;DHT22;24844;52.380;7.018;2023-07-13T01:09:26;16.60;99.90
39099;DHT22;24844;52.380;7.018;2023-07-13T01:11:52;16.60;99.90
39099;DHT22;24844;52.380;7.018;2023-07-13T01:14:17;16.60;99.90
39099;DHT22;24844;52.380;7.018;2023-07-13T01:16:45;16.60;99.90
39099;DHT22;24844;52.380;7.018;2023-07-13T01:21:55;16.20;99.90
39099;DHT22;24844;52.380;7.018;2023-07-13T01:24:21;16.30;99.90
39099;DHT22;24844;52.380;7.018;2023-07-13T01:26:46;16.20;99.90
39099;DHT22;24844;52.380;7.018;2023-07-13T01:29:12;16.20;99.90
39099;DHT22;24844;52.380;7.018;2023-07-13T01:31:38;16.30;99.90
39099;DHT22;24844;52.380;7.018;2023-07-13T01:34:03;16.20;99.90
39099;DHT22;24844;52.380;7.018;2023-07-13T01:36:29;16.20;99.90
39099;DHT22;24844;52.380;7.018;2023-07-13T01:38:54;16.20;99.90
39099;DHT22;24844;52.380;7.018;2023-07-13T01:41:20;16.20;99.90
39099;DHT22;24844;52.380;7.018;2023-07-13T01:43:46;16.20;99.90
39099;DHT22;24844;52.380;7.018;2023-07-13T01:46:11;16.30;99.90
39099;DHT22;24844;52.380;7.018;2023-07-13T01:48:37;16.30;99.90
39099;DHT22;24844;52.380;7.018;2023-07-13T01:51:03;16.20;99.90
39099;DHT22;24844;52.380;7.018;2023-07-13T01:53:28;16.10;99.90
39099;DHT22;24844;52.380;7.018;2023-07-13T01:55:54;16.10;99.90
39099;DHT22;24844;52.380;7.018;2023-07-13T01:58:20;16.10;99.90
39099;DHT22;24844;52.380;7.018;2023-07-13T02:00:48;16.20;99.90
39099;DHT22;24844;52.380;7.018;2023-07-13T02:03:15;16.30;99.90
39099;DHT22;24844;52.380;7.018;2023-07-13T02:05:43;16.20;99.90
39099;DHT22;24844;52.380;7.018;2023-07-13T02:08:09;16.40;99.90
39099;DHT22;24844;52.380;7.018;2023-07-13T02:10:36;16.30;99.90
39099;DHT22;24844;52.380;7.018;2023-07-13T02:13:05;16.30;99.90
39099;DHT22;24844;52.380;7.018;2023-07-13T02:15:31;16.40;99.90
39099;DHT22;24844;52.380;7.018;2023-07-13T02:17:57;16.30;99.90
39099;DHT22;24844;52.380;7.018;2023-07-13T02:20:24;16.30;99.90
39099;DHT22;24844;52.380;7.018;2023-07-13T02:22:50;16.30;99.90
39099;DHT22;24844;52.380;7.018;2023-07-13T02:25:15;16.30;99.90
39099;DHT22;24844;52.380;7.018;2023-07-13T02:27:41;16.20;99.90
39099;DHT22;24844;52.380;7.018;2023-07-13T02:30:08;16.10;99.90
39099;DHT22;24844;52.380;7.018;2023-07-13T02:32:33;16.10;99.90
39099;DHT22;24844;52.380;7.018;2023-07-13T02:35:00;16.20;99.90
39099;DHT22;24844;52.380;7.018;2023-07-13T02:37:26;16.10;99.90
39099;DHT22;24844;52.380;7.018;2023-07-13T02:39:52;16.00;99.90
39099;DHT22;24844;52.380;7.018;2023-07-13T02:42:17;16.10;99.90
39099;DHT22;24844;52.380;7.018;2023-07-13T02:44:43;16.10;99.90
39099;DHT22;24844;52.380;7.018;2023-07-13T02:47:09;16.10;99.90
39099;DHT22;24844;52.380;7.018;2023-07-13T02:49:34;16.10;99.90
39099;DHT22;24844;52.380;7.018;2023-07-13T02:52:01;16.00;99.90
39099;DHT22;24844;52.380;7.018;2023-07-13T02:54:27;16.00;99.90
39099;DHT22;24844;52.380;7.018;2023-07-13T02:56:53;15.80;99.90
39099;DHT22;24844;52.380;7.018;2023-07-13T02:59:19;15.90;99.90
39099;DHT22;24844;52.380;7.018;2023-07-13T03:01:44;15.90;99.90
39099;DHT22;24844;52.380;7.018;2023-07-13T03:04:10;15.80;99.90
39099;DHT22;24844;52.380;7.018;2023-07-13T03:06:36;15.90;99.90
39099;DHT22;24844;52.380;7.018;2023-07-13T03:09:01;15.90;99.90
39099;DHT22;24844;52.380;7.018;2023-07-13T03:11:27;16.00;99.90
39099;DHT22;24844;52.380;7.018;2023-07-13T03:13:53;15.90;99.90
39099;DHT22;24844;52.380;7.018;2023-07-13T03:16:19;16.20;99.90
39099;DHT22;24844;52.380;7.018;2023-07-13T03:18:46;16.40;99.90
39099;DHT22;24844;52.380;7.018;2023-07-13T03:21:11;16.30;99.90
39099;DHT22;24844;52.380;7.018;2023-07-13T03:23:37;16.20;99.90
39099;DHT22;24844;52.380;7.018;2023-07-13T03:26:09;16.10;99.90
39099;DHT22;24844;52.380;7.018;2023-07-13T03:28:35;16.20;99.90
39099;DHT22;24844;52.380;7.018;2023-07-13T03:31:03;16.20;99.90
39099;DHT22;24844;52.380;7.018;2023-07-13T03:33:30;16.20;99.90
39099;DHT22;24844;52.380;7.018;2023-07-13T03:35:56;16.30;99.90
39099;DHT22;24844;52.380;7.018;2023-07-13T03:38:22;16.10;99.90
39099;DHT22;24844;52.380;7.018;2023-07-13T03:40:47;16.20;99.90
39099;DHT22;24844;52.380;7.018;2023-07-13T03:43:13;16.10;99.90
39099;DHT22;24844;52.380;7.018;2023-07-13T03:45:39;15.90;99.90
39099;DHT22;24844;52.380;7.018;2023-07-13T03:48:04;16.00;99.90
39099;DHT22;24844;52.380;7.018;2023-07-13T03:50:31;15.90;99.90
39099;DHT22;24844;52.380;7.018;2023-07-13T03:52:58;15.80;99.90
39099;DHT22;24844;52.380;7.018;2023-07-13T03:55:24;15.90;99.90
39099;DHT22;24844;52.380;7.018;2023-07-13T03:57:57;16.00;99.90
39099;DHT22;24844;52.380;7.018;2023-07-13T04:00:23;16.10;99.90
39099;DHT22;24844;52.380;7.018;2023-07-13T04:02:50;16.10;99.90
39099;DHT22;24844;52.380;7.018;2023-07-13T04:05:16;16.10;99.90
39099;DHT22;24844;52.380;7.018;2023-07-13T04:07:42;16.10;99.90
39099;DHT22;24844;52.380;7.018;2023-07-13T04:10:08;16.10;99.90
39099;DHT22;24844;52.380;7.018;2023-07-13T04:12:34;16.20;99.90
39099;DHT22;24844;52.380;7.018;2023-07-13T04:14:59;16.30;99.90
39099;DHT22;24844;52.380;7.018;2023-07-13T04:17:25;16.50;99.90
39099;DHT22;24844;52.380;7.018;2023-07-13T04:19:51;16.60;99.90
39099;DHT22;24844;52.380;7.018;2023-07-13T04:22:17;16.80;99.90
39099;DHT22;24844;52.380;7.018;2023-07-13T04:24:42;16.70;99.90
39099;DHT22;24844;52.380;7.018;2023-07-13T04:27:09;17.00;99.90
39099;DHT22;24844;52.380;7.018;2023-07-13T04:29:34;17.00;99.90
39099;DHT22;24844;52.380;7.018;2023-07-13T04:32:00;16.90;99.90
39099;DHT22;24844;52.380;7.018;2023-07-13T04:34:26;16.90;99.90
39099;DHT22;24844;52.380;7.018;2023-07-13T04:36:52;16.90;99.90
39099;DHT22;24844;52.380;7.018;2023-07-13T04:39:18;17.00;99.90
39099;DHT22;24844;52.380;7.018;2023-07-13T04:41:44;17.00;99.90
39099;DHT22;24844;52.380;7.018;2023-07-13T04:44:09;17.00;99.90
39099;DHT22;24844;52.380;7.018;2023-07-13T04:46:35;17.00;99.90
39099;DHT22;24844;52.380;7.018;2023-07-13T04:49:01;17.20;99.90
39099;DHT22;24844;52.380;7.018;2023-07-13T04:51:29;17.20;99.90
39099;DHT22;24844;52.380;7.018;2023-07-13T04:53:54;17.50;99.90
39099;DHT22;24844;52.380;7.018;2023-07-13T04:56:20;17.40;99.90
39099;DHT22;24844;52.380;7.018;2023-07-13T04:58:46;17.30;99.90
39099;DHT22;24844;52.380;7.018;2023-07-13T05:01:11;17.20;99.90
39099;DHT22;24844;52.380;7.018;2023-07-13T05:03:39;17.30;99.90
39099;DHT22;24844;52.380;7.018;2023-07-13T05:06:07;17.50;99.90
39099;DHT22;24844;52.380;7.018;2023-07-13T05:08:33;17.80;99.90
39099;DHT22;24844;52.380;7.018;2023-07-13T05:11:03;18.10;99.90
39099;DHT22;24844;52.380;7.018;2023-07-13T05:13:29;18.50;99.90
39099;DHT22;24844;52.380;7.018;2023-07-13T05:15:59;18.70;99.90
39099;DHT22;24844;52.380;7.018;2023-07-13T05:18:25;19.20;99.90
39099;DHT22;24844;52.380;7.018;2023-07-13T05:21:05;19.30;99.90
39099;DHT22;24844;52.380;7.018;2023-07-13T05:23:32;19.10;99.90
39099;DHT22;24844;52.380;7.018;2023-07-13T05:25:58;19.50;99.90
39099;DHT22;24844;52.380;7.018;2023-07-13T05:28:25;19.40;99.90
39099;DHT22;24844;52.380;7.018;2023-07-13T05:30:51;19.30;99.90
39099;DHT22;24844;52.380;7.018;2023-07-13T05:33:17;19.40;99.90
39099;DHT22;24844;52.380;7.018;2023-07-13T05:35:43;19.30;99.90
39099;DHT22;24844;52.380;7.018;2023-07-13T05:38:09;19.10;99.90
39099;DHT22;24844;52.380;7.018;2023-07-13T05:40:34;19.10;99.90
39099;DHT22;24844;52.380;7.018;2023-07-13T05:43:00;19.10;99.90
39099;DHT22;24844;52.380;7.018;2023-07-13T05:45:25;18.80;99.90
39099;DHT22;24844;52.380;7.018;2023-07-13T05:47:51;18.60;99.90
39099;DHT22;24844;52.380;7.018;2023-07-13T05:50:17;18.30;99.90
39099;DHT22;24844;52.380;7.018;2023-07-13T05:52:42;18.50;99.90
39099;DHT22;24844;52.380;7.018;2023-07-13T05:55:08;19.00;99.90
39099;DHT22;24844;52.380;7.018;2023-07-13T05:57:34;18.80;99.90
39099;DHT22;24844;52.380;7.018;2023-07-13T06:00:00;18.80;99.90
39099;DHT22;24844;52.380;7.018;2023-07-13T06:02:25;18.90;99.90
39099;DHT22;24844;52.380;7.018;2023-07-13T06:04:52;18.70;99.90
39099;DHT22;24844;52.380;7.018;2023-07-13T06:07:17;19.00;99.90
39099;DHT22;24844;52.380;7.018;2023-07-13T06:09:43;19.20;99.90
39099;DHT22;24844;52.380;7.018;2023-07-13T06:12:09;19.40;99.90
39099;DHT22;24844;52.380;7.018;2023-07-13T06:14:34;19.70;99.90
39099;DHT22;24844;52.380;7.018;2023-07-13T06:17:00;19.70;99.90
39099;DHT22;24844;52.380;7.018;2023-07-13T06:19:26;19.90;99.90
39099;DHT22;24844;52.380;7.018;2023-07-13T06:21:51;19.70;99.90
39099;DHT22;24844;52.380;7.018;2023-07-13T06:24:17;19.80;99.90
39099;DHT22;24844;52.380;7.018;2023-07-13T06:26:43;19.80;99.90
39099;DHT22;24844;52.380;7.018;2023-07-13T06:29:08;19.70;99.90
39099;DHT22;24844;52.380;7.018;2023-07-13T06:31:34;20.20;99.90
39099;DHT22;24844;52.380;7.018;2023-07-13T06:34:00;20.50;99.90
39099;DHT22;24844;52.380;7.018;2023-07-13T06:36:25;21.00;99.90
39099;DHT22;24844;52.380;7.018;2023-07-13T06:38:51;21.70;99.90
39099;DHT22;24844;52.380;7.018;2023-07-13T06:41:17;22.10;99.90
39099;DHT22;24844;52.380;7.018;2023-07-13T06:43:42;22.80;99.90
39099;DHT22;24844;52.380;7.018;2023-07-13T06:48:37;21.40;99.90
39099;DHT22;24844;52.380;7.018;2023-07-13T06:51:03;23.40;99.90
39099;DHT22;24844;52.380;7.018;2023-07-13T06:53:29;23.20;99.90
39099;DHT22;24844;52.380;7.018;2023-07-13T06:55:54;23.70;99.90
39099;DHT22;24844;52.380;7.018;2023-07-13T06:58:21;23.50;99.90
39099;DHT22;24844;52.380;7.018;2023-07-13T07:00:49;24.50;99.70
39099;DHT22;24844;52.380;7.018;2023-07-13T07:03:15;24.70;99.40
39099;DHT22;24844;52.380;7.018;2023-07-13T07:05:41;24.90;97.60
39099;DHT22;24844;52.380;7.018;2023-07-13T07:08:06;25.30;96.80
39099;DHT22;24844;52.380;7.018;2023-07-13T07:10:33;25.20;97.50
39099;DHT22;24844;52.380;7.018;2023-07-13T07:12:59;25.20;97.00
39099;DHT22;24844;52.380;7.018;2023-07-13T07:15:26;25.40;96.80
39099;DHT22;24844;52.380;7.018;2023-07-13T07:17:52;25.90;94.80
39099;DHT22;24844;52.380;7.018;2023-07-13T07:20:18;25.50;95.80
39099;DHT22;24844;52.380;7.018;2023-07-13T07:22:43;25.80;95.90
39099;DHT22;24844;52.380;7.018;2023-07-13T07:25:09;25.50;96.20
39099;DHT22;24844;52.380;7.018;2023-07-13T07:27:35;25.40;96.50
39099;DHT22;24844;52.380;7.018;2023-07-13T07:30:00;25.00;96.80
39099;DHT22;24844;52.380;7.018;2023-07-13T07:32:26;26.00;96.00
39099;DHT22;24844;52.380;7.018;2023-07-13T07:34:51;25.80;95.50
39099;DHT22;24844;52.380;7.018;2023-07-13T07:37:17;25.50;95.60
39099;DHT22;24844;52.380;7.018;2023-07-13T07:39:43;25.20;95.70
39099;DHT22;24844;52.380;7.018;2023-07-13T07:42:09;24.80;97.00
39099;DHT22;24844;52.380;7.018;2023-07-13T07:44:35;24.50;98.20
39099;DHT22;24844;52.380;7.018;2023-07-13T07:47:01;24.40;97.90
39099;DHT22;24844;52.380;7.018;2023-07-13T07:49:27;24.90;98.40
39099;DHT22;24844;52.380;7.018;2023-07-13T07:51:53;26.00;97.00
39099;DHT22;24844;52.380;7.018;2023-07-13T07:54:19;26.70;95.70
39099;DHT22;24844;52.380;7.018;2023-07-13T07:56:44;27.30;94.70
39099;DHT22;24844;52.380;7.018;2023-07-13T07:59:10;27.20;93.90
39099;DHT22;24844;52.380;7.018;2023-07-13T08:01:36;26.90;93.00
39099;DHT22;24844;52.380;7.018;2023-07-13T08:04:02;26.40;93.80
39099;DHT22;24844;52.380;7.018;2023-07-13T08:06:28;26.50;94.30
39099;DHT22;24844;52.380;7.018;2023-07-13T08:08:54;27.20;92.70
39099;DHT22;24844;52.380;7.018;2023-07-13T08:11:21;27.80;92.10
39099;DHT22;24844;52.380;7.018;2023-07-13T08:13:47;28.30;90.70
39099;DHT22;24844;52.380;7.018;2023-07-13T08:16:13;28.90;88.50
39099;DHT22;24844;52.380;7.018;2023-07-13T08:18:39;29.10;88.00
39099;DHT22;24844;52.380;7.018;2023-07-13T08:21:05;28.40;88.10
39099;DHT22;24844;52.380;7.018;2023-07-13T08:23:31;28.80;87.20
39099;DHT22;24844;52.380;7.018;2023-07-13T08:25:58;29.70;84.30
39099;DHT22;24844;52.380;7.018;2023-07-13T08:28:24;28.10;86.80
39099;DHT22;24844;52.380;7.018;2023-07-13T08:30:49;28.40;87.70
39099;DHT22;24844;52.380;7.018;2023-07-13T08:33:16;28.00;87.40
39099;DHT22;24844;52.380;7.018;2023-07-13T08:35:45;28.60;86.30
39099;DHT22;24844;52.380;7.018;2023-07-13T08:38:10;28.50;84.90
39099;DHT22;24844;52.380;7.018;2023-07-13T08:40:36;28.30;86.70
39099;DHT22;24844;52.380;7.018;2023-07-13T08:43:02;27.70;87.80
39099;DHT22;24844;52.380;7.018;2023-07-13T08:45:44;27.40;88.50
39099;DHT22;24844;52.380;7.018;2023-07-13T08:50:53;26.70;92.30
39099;DHT22;24844;52.380;7.018;2023-07-13T08:53:19;27.40;92.00
39099;DHT22;24844;52.380;7.018;2023-07-13T08:55:46;28.30;90.20
39099;DHT22;24844;52.380;7.018;2023-07-13T08:58:14;28.80;86.70
39099;DHT22;24844;52.380;7.018;2023-07-13T09:01:03;28.80;85.20
39099;DHT22;24844;52.380;7.018;2023-07-13T09:03:37;29.20;82.90
39099;DHT22;24844;52.380;7.018;2023-07-13T09:06:08;29.50;83.30
39099;DHT22;24844;52.380;7.018;2023-07-13T09:09:02;29.70;81.80
39099;DHT22;24844;52.380;7.018;2023-07-13T09:12:01;29.50;78.80
39099;DHT22;24844;52.380;7.018;2023-07-13T09:14:43;29.70;79.30
39099;DHT22;24844;52.380;7.018;2023-07-13T09:17:20;30.60;79.90
39099;DHT22;24844;52.380;7.018;2023-07-13T09:19:49;30.40;79.20
39099;DHT22;24844;52.380;7.018;2023-07-13T09:22:20;30.50;78.70
39099;DHT22;24844;52.380;7.018;2023-07-13T09:24:50;30.50;78.10
39099;DHT22;24844;52.380;7.018;2023-07-13T09:27:27;30.40;75.30
39099;DHT22;24844;52.380;7.018;2023-07-13T09:30:21;29.40;77.70
39099;DHT22;24844;52.380;7.018;2023-07-13T09:32:52;29.70;79.40
39099;DHT22;24844;52.380;7.018;2023-07-13T09:35:36;29.80;78.40
39099;DHT22;24844;52.380;7.018;2023-07-13T09:38:12;29.30;79.60
39099;DHT22;24844;52.380;7.018;2023-07-13T09:40:53;28.80;78.70
39099;DHT22;24844;52.380;7.018;2023-07-13T09:43:22;28.70;77.60
39099;DHT22;24844;52.380;7.018;2023-07-13T09:45:48;28.40;79.60
39099;DHT22;24844;52.380;7.018;2023-07-13T09:48:15;28.20;79.90
39099;DHT22;24844;52.380;7.018;2023-07-13T09:50:42;28.70;78.90
39099;DHT22;24844;52.380;7.018;2023-07-13T09:53:16;29.40;80.50
39099;DHT22;24844;52.380;7.018;2023-07-13T09:55:44;30.50;78.80
39099;DHT22;24844;52.380;7.018;2023-07-13T10:00:41;28.20;79.40
39099;DHT22;24844;52.380;7.018;2023-07-13T10:03:18;28.20;81.80
39099;DHT22;24844;52.380;7.018;2023-07-13T10:05:46;27.50;82.30
39099;DHT22;24844;52.380;7.018;2023-07-13T10:10:44;26.30;91.20
39099;DHT22;24844;52.380;7.018;2023-07-13T10:13:37;24.90;98.60
39099;DHT22;24844;52.380;7.018;2023-07-13T10:16:06;23.30;99.90
39099;DHT22;24844;52.380;7.018;2023-07-13T10:21:17;22.40;99.90
39099;DHT22;24844;52.380;7.018;2023-07-13T10:23:47;22.10;99.90
39099;DHT22;24844;52.380;7.018;2023-07-13T10:26:19;21.80;99.90
39099;DHT22;24844;52.380;7.018;2023-07-13T10:28:51;22.30;99.90
39099;DHT22;24844;52.380;7.018;2023-07-13T10:31:19;23.60;99.90
39099;DHT22;24844;52.380;7.018;2023-07-13T10:33:46;24.50;99.90
39099;DHT22;24844;52.380;7.018;2023-07-13T10:36:34;24.40;99.90
39099;DHT22;24844;52.380;7.018;2023-07-13T10:39:05;24.50;99.90
39099;DHT22;24844;52.380;7.018;2023-07-13T10:41:35;24.40;99.90
39099;DHT22;24844;52.380;7.018;2023-07-13T10:44:03;23.20;99.90
39099;DHT22;24844;52.380;7.018;2023-07-13T10:46:30;22.30;99.90
39099;DHT22;24844;52.380;7.018;2023-07-13T10:49:01;21.50;99.90
39099;DHT22;24844;52.380;7.018;2023-07-13T10:51:28;21.70;99.90
39099;DHT22;24844;52.380;7.018;2023-07-13T10:54:16;21.50;99.90
39099;DHT22;24844;52.380;7.018;2023-07-13T10:56:42;21.10;99.90
39099;DHT22;24844;52.380;7.018;2023-07-13T11:01:56;21.00;99.90
39099;DHT22;24844;52.380;7.018;2023-07-13T11:04:25;20.90;99.90
39099;DHT22;24844;52.380;7.018;2023-07-13T11:06:56;20.70;99.90
39099;DHT22;24844;52.380;7.018;2023-07-13T11:09:32;20.50;99.90
39099;DHT22;24844;52.380;7.018;2023-07-13T11:12:06;20.10;99.90
39099;DHT22;24844;52.380;7.018;2023-07-13T11:22:48;19.10;99.90
39099;DHT22;24844;52.380;7.018;2023-07-13T11:27:51;19.30;99.90
39099;DHT22;24844;52.380;7.018;2023-07-13T11:38:24;19.80;99.90
39099;DHT22;24844;52.380;7.018;2023-07-13T11:40:54;19.90;99.90
39099;DHT22;24844;52.380;7.018;2023-07-13T11:43:20;19.70;99.90
39099;DHT22;24844;52.380;7.018;2023-07-13T11:45:49;19.50;99.90
39099;DHT22;24844;52.380;7.018;2023-07-13T11:50:55;20.10;99.90
39099;DHT22;24844;52.380;7.018;2023-07-13T11:53:21;19.90;99.90
39099;DHT22;24844;52.380;7.018;2023-07-13T11:55:47;19.90;99.90
39099;DHT22;24844;52.380;7.018;2023-07-13T11:58:19;19.70;99.90
39099;DHT22;24844;52.380;7.018;2023-07-13T12:00:46;19.70;99.90
39099;DHT22;24844;52.380;7.018;2023-07-13T12:03:18;19.90;99.90
39099;DHT22;24844;52.380;7.018;2023-07-13T12:05:59;19.90;99.90
39099;DHT22;24844;52.380;7.018;2023-07-13T12:08:27;19.80;99.90
39099;DHT22;24844;52.380;7.018;2023-07-13T12:11:09;19.70;99.90
39099;DHT22;24844;52.380;7.018;2023-07-13T12:13:38;19.50;99.90
39099;DHT22;24844;52.380;7.018;2023-07-13T12:16:12;19.60;99.90
39099;DHT22;24844;52.380;7.018;2023-07-13T12:18:39;19.80;99.90
39099;DHT22;24844;52.380;7.018;2023-07-13T12:21:05;19.40;99.90
39099;DHT22;24844;52.380;7.018;2023-07-13T12:23:35;19.10;99.90
39099;DHT22;24844;52.380;7.018;2023-07-13T12:26:05;19.00;99.90
39099;DHT22;24844;52.380;7.018;2023-07-13T12:29:15;19.20;99.90
39099;DHT22;24844;52.380;7.018;2023-07-13T12:31:34;19.00;99.90
39099;DHT22;24844;52.380;7.018;2023-07-13T12:34:02;19.20;99.90
39099;DHT22;24844;52.380;7.018;2023-07-13T12:36:34;19.50;99.90
39099;DHT22;24844;52.380;7.018;2023-07-13T12:39:13;19.80;99.90
39099;DHT22;24844;52.380;7.018;2023-07-13T12:41:39;19.90;99.90
39099;DHT22;24844;52.380;7.018;2023-07-13T12:44:12;20.00;99.90
39099;DHT22;24844;52.380;7.018;2023-07-13T12:46:50;20.10;99.90
39099;DHT22;24844;52.380;7.018;2023-07-13T12:49:17;19.90;99.90
39099;DHT22;24844;52.380;7.018;2023-07-13T12:51:50;19.70;99.90
39099;DHT22;24844;52.380;7.018;2023-07-13T12:54:19;19.60;99.90
39099;DHT22;24844;52.380;7.018;2023-07-13T12:56:49;19.40;99.90
39099;DHT22;24844;52.380;7.018;2023-07-13T12:59:20;19.00;99.90
39099;DHT22;24844;52.380;7.018;2023-07-13T13:01:46;18.60;99.90
39099;DHT22;24844;52.380;7.018;2023-07-13T13:04:12;18.30;99.90
39099;DHT22;24844;52.380;7.018;2023-07-13T13:06:39;18.20;99.90
39099;DHT22;24844;52.380;7.018;2023-07-13T13:09:15;18.20;99.90
39099;DHT22;24844;52.380;7.018;2023-07-13T13:11:41;18.20;99.90
39099;DHT22;24844;52.380;7.018;2023-07-13T13:14:07;18.20;99.90
39099;DHT22;24844;52.380;7.018;2023-07-13T13:16:46;18.10;99.90
39099;DHT22;24844;52.380;7.018;2023-07-13T13:19:22;18.00;99.90
39099;DHT22;24844;52.380;7.018;2023-07-13T13:21:49;17.60;99.90
39099;DHT22;24844;52.380;7.018;2023-07-13T13:24:23;17.50;99.90
39099;DHT22;24844;52.380;7.018;2023-07-13T13:26:50;17.20;99.90
39099;DHT22;24844;52.380;7.018;2023-07-13T13:29:19;17.10;99.90
39099;DHT22;24844;52.380;7.018;2023-07-13T13:31:46;17.10;99.90
39099;DHT22;24844;52.380;7.018;2023-07-13T13:34:13;17.10;99.90
39099;DHT22;24844;52.380;7.018;2023-07-13T13:36:40;17.10;99.90
39099;DHT22;24844;52.380;7.018;2023-07-13T13:39:23;17.20;99.90
39099;DHT22;24844;52.380;7.018;2023-07-13T13:41:51;17.20;99.90
39099;DHT22;24844;52.380;7.018;2023-07-13T13:44:18;16.90;99.90
39099;DHT22;24844;52.380;7.018;2023-07-13T13:46:49;16.70;99.90
39099;DHT22;24844;52.380;7.018;2023-07-13T13:49:19;16.70;99.90
39099;DHT22;24844;52.380;7.018;2023-07-13T13:51:46;17.00;99.90
39099;DHT22;24844;52.380;7.018;2023-07-13T13:54:14;17.10;99.90
39099;DHT22;24844;52.380;7.018;2023-07-13T13:56:46;17.30;99.90
39099;DHT22;24844;52.380;7.018;2023-07-13T13:59:13;17.50;99.90
39099;DHT22;24844;52.380;7.018;2023-07-13T14:01:40;17.80;99.90
39099;DHT22;24844;52.380;7.018;2023-07-13T14:04:17;18.00;99.90
39099;DHT22;24844;52.380;7.018;2023-07-13T14:06:43;18.10;99.90
39099;DHT22;24844;52.380;7.018;2023-07-13T14:09:12;18.30;99.90
39099;DHT22;24844;52.380;7.018;2023-07-13T14:11:39;18.50;99.90
39099;DHT22;24844;52.380;7.018;2023-07-13T14:14:16;18.80;99.90
39099;DHT22;24844;52.380;7.018;2023-07-13T14:16:43;18.70;99.90
39099;DHT22;24844;52.380;7.018;2023-07-13T14:19:11;18.50;99.90
39099;DHT22;24844;52.380;7.018;2023-07-13T14:21:37;18.70;99.90
39099;DHT22;24844;52.380;7.018;2023-07-13T14:24:04;18.90;99.90
39099;DHT22;24844;52.380;7.018;2023-07-13T14:26:35;19.00;99.90
39099;DHT22;24844;52.380;7.018;2023-07-13T14:29:02;18.90;99.90
39099;DHT22;24844;52.380;7.018;2023-07-13T14:31:30;18.90;99.90
39099;DHT22;24844;52.380;7.018;2023-07-13T14:33:56;19.00;99.90
39099;DHT22;24844;52.380;7.018;2023-07-13T14:36:31;19.20;99.90
39099;DHT22;24844;52.380;7.018;2023-07-13T14:38:58;19.00;99.90
39099;DHT22;24844;52.380;7.018;2023-07-13T14:41:25;19.10;99.90
39099;DHT22;24844;52.380;7.018;2023-07-13T14:43:51;19.10;99.90
39099;DHT22;24844;52.380;7.018;2023-07-13T14:46:32;19.20;99.90
39099;DHT22;24844;52.380;7.018;2023-07-13T14:51:58;18.80;99.90
39099;DHT22;24844;52.380;7.018;2023-07-13T14:54:24;18.90;99.90
39099;DHT22;24844;52.380;7.018;2023-07-13T14:56:50;19.00;99.90
39099;DHT22;24844;52.380;7.018;2023-07-13T14:59:16;19.00;99.90
39099;DHT22;24844;52.380;7.018;2023-07-13T15:01:44;19.10;99.90
39099;DHT22;24844;52.380;7.018;2023-07-13T15:04:11;19.30;99.90
39099;DHT22;24844;52.380;7.018;2023-07-13T15:07:00;19.30;99.90
39099;DHT22;24844;52.380;7.018;2023-07-13T15:09:27;19.30;99.90
39099;DHT22;24844;52.380;7.018;2023-07-13T15:11:55;18.80;99.90
39099;DHT22;24844;52.380;7.018;2023-07-13T15:14:21;18.50;99.90
39099;DHT22;24844;52.380;7.018;2023-07-13T15:16:49;18.60;99.90
39099;DHT22;24844;52.380;7.018;2023-07-13T15:19:17;18.70;99.90
39099;DHT22;24844;52.380;7.018;2023-07-13T15:21:44;18.90;99.90
39099;DHT22;24844;52.380;7.018;2023-07-13T15:24:12;18.90;99.90
39099;DHT22;24844;52.380;7.018;2023-07-13T15:26:38;19.10;99.90
39099;DHT22;24844;52.380;7.018;2023-07-13T15:29:05;18.80;99.90
39099;DHT22;24844;52.380;7.018;2023-07-13T15:31:32;18.80;99.90
39099;DHT22;24844;52.380;7.018;2023-07-13T15:33:59;18.90;99.90
39099;DHT22;24844;52.380;7.018;2023-07-13T15:36:26;19.00;99.90
39099;DHT22;24844;52.380;7.018;2023-07-13T15:38:53;19.00;99.90
39099;DHT22;24844;52.380;7.018;2023-07-13T15:41:25;19.10;99.90
39099;DHT22;24844;52.380;7.018;2023-07-13T15:43:53;19.20;99.90
39099;DHT22;24844;52.380;7.018;2023-07-13T15:46:20;19.40;99.90
39099;DHT22;24844;52.380;7.018;2023-07-13T15:48:51;19.50;99.90
39099;DHT22;24844;52.380;7.018;2023-07-13T15:51:26;19.40;99.90
39099;DHT22;24844;52.380;7.018;2023-07-13T15:53:55;18.90;99.90
39099;DHT22;24844;52.380;7.018;2023-07-13T15:56:27;18.80;99.90
39099;DHT22;24844;52.380;7.018;2023-07-13T15:58:54;18.60;99.90
39099;DHT22;24844;52.380;7.018;2023-07-13T16:01:22;18.20;99.90
39099;DHT22;24844;52.380;7.018;2023-07-13T16:03:48;18.10;99.90
39099;DHT22;24844;52.380;7.018;2023-07-13T16:06:22;18.30;99.90
39099;DHT22;24844;52.380;7.018;2023-07-13T16:08:49;18.70;99.90
39099;DHT22;24844;52.380;7.018;2023-07-13T16:11:27;18.90;99.90
39099;DHT22;24844;52.380;7.018;2023-07-13T16:13:53;18.80;99.90
39099;DHT22;24844;52.380;7.018;2023-07-13T16:16:22;18.70;99.90
39099;DHT22;24844;52.380;7.018;2023-07-13T16:18:56;18.70;99.90